Terminal Aerodrome Forecast
Issued by NWS Portland, OR

Home | Current Version | Previous Version | Text Only | Print | Product List | Glossary On
Versions: 1 2 3 4 5 6 7 8 9 10 11 12 13 14 15 16 17 18 19 20 21 22 23 24 25 26
000
FTUS46 KPQR 252342
TAFAST
TAF
KAST 252342Z 2600/2624 20012KT 5SM -RA BR FEW007 BKN045 OVC060
     FM260200 19010KT P6SM -SHRA SCT025 BKN050
     FM260700 15005KT P6SM VCSH BKN025 BKN050
     FM262000 11006KT P6SM SCT050=

USA.gov is the U.S. government's official web portal to all federal, state and local government web resources and services.